sensor_id;sensor_type;location;lat;lon;timestamp;P1;durP1;ratioP1;P2;durP2;ratioP2
35990;SDS011;22064;42.672;23.282;2023-08-21T00:01:58;11.38;;;6.60;;
35990;SDS011;22064;42.672;23.282;2023-08-21T00:04:32;12.20;;;6.65;;
35990;SDS011;22064;42.672;23.282;2023-08-21T00:07:00;14.68;;;7.07;;
35990;SDS011;22064;42.672;23.282;2023-08-21T00:09:32;13.38;;;6.85;;
35990;SDS011;22064;42.672;23.282;2023-08-21T00:12:04;12.35;;;6.68;;
35990;SDS011;22064;42.672;23.282;2023-08-21T00:14:33;10.93;;;6.88;;
35990;SDS011;22064;42.672;23.282;2023-08-21T00:16:58;9.82;;;6.47;;
35990;SDS011;22064;42.672;23.282;2023-08-21T00:19:25;12.68;;;7.00;;
35990;SDS011;22064;42.672;23.282;2023-08-21T00:21:56;12.50;;;7.15;;
35990;SDS011;22064;42.672;23.282;2023-08-21T00:24:23;14.80;;;7.80;;
35990;SDS011;22064;42.672;23.282;2023-08-21T00:26:52;15.40;;;6.80;;
35990;SDS011;22064;42.672;23.282;2023-08-21T00:29:19;12.60;;;6.88;;
35990;SDS011;22064;42.672;23.282;2023-08-21T00:31:46;12.95;;;6.75;;
35990;SDS011;22064;42.672;23.282;2023-08-21T00:34:13;13.43;;;6.70;;
35990;SDS011;22064;42.672;23.282;2023-08-21T00:36:41;12.00;;;7.30;;
35990;SDS011;22064;42.672;23.282;2023-08-21T00:39:08;11.48;;;6.75;;
35990;SDS011;22064;42.672;23.282;2023-08-21T00:41:35;12.75;;;7.32;;
35990;SDS011;22064;42.672;23.282;2023-08-21T00:44:03;12.02;;;6.93;;
35990;SDS011;22064;42.672;23.282;2023-08-21T00:46:36;13.50;;;6.93;;
35990;SDS011;22064;42.672;23.282;2023-08-21T00:49:09;15.75;;;7.50;;
35990;SDS011;22064;42.672;23.282;2023-08-21T00:51:37;11.73;;;7.45;;
35990;SDS011;22064;42.672;23.282;2023-08-21T00:54:05;12.73;;;7.15;;
35990;SDS011;22064;42.672;23.282;2023-08-21T00:56:32;13.55;;;6.70;;
35990;SDS011;22064;42.672;23.282;2023-08-21T00:59:00;12.07;;;6.72;;
35990;SDS011;22064;42.672;23.282;2023-08-21T01:01:26;12.23;;;6.75;;
35990;SDS011;22064;42.672;23.282;2023-08-21T01:06:23;12.85;;;6.43;;
35990;SDS011;22064;42.672;23.282;2023-08-21T01:08:52;11.93;;;6.82;;
35990;SDS011;22064;42.672;23.282;2023-08-21T01:11:46;13.82;;;7.22;;
35990;SDS011;22064;42.672;23.282;2023-08-21T01:14:40;13.32;;;6.53;;
35990;SDS011;22064;42.672;23.282;2023-08-21T01:17:14;13.25;;;6.93;;
35990;SDS011;22064;42.672;23.282;2023-08-21T01:19:47;16.23;;;7.22;;
35990;SDS011;22064;42.672;23.282;2023-08-21T01:22:16;12.02;;;7.00;;
35990;SDS011;22064;42.672;23.282;2023-08-21T01:24:42;11.93;;;6.75;;
35990;SDS011;22064;42.672;23.282;2023-08-21T01:27:12;12.55;;;7.18;;
35990;SDS011;22064;42.672;23.282;2023-08-21T01:29:40;12.75;;;6.90;;
35990;SDS011;22064;42.672;23.282;2023-08-21T01:32:19;12.35;;;7.15;;
35990;SDS011;22064;42.672;23.282;2023-08-21T01:34:52;12.43;;;7.03;;
35990;SDS011;22064;42.672;23.282;2023-08-21T01:37:24;11.65;;;7.05;;
35990;SDS011;22064;42.672;23.282;2023-08-21T01:39:51;9.70;;;6.60;;
35990;SDS011;22064;42.672;23.282;2023-08-21T01:42:20;12.43;;;7.22;;
35990;SDS011;22064;42.672;23.282;2023-08-21T01:44:48;14.05;;;7.63;;
35990;SDS011;22064;42.672;23.282;2023-08-21T01:47:14;12.50;;;7.35;;
35990;SDS011;22064;42.672;23.282;2023-08-21T01:49:42;11.00;;;6.90;;
35990;SDS011;22064;42.672;23.282;2023-08-21T01:52:11;11.55;;;6.88;;
35990;SDS011;22064;42.672;23.282;2023-08-21T01:54:40;9.88;;;6.50;;
35990;SDS011;22064;42.672;23.282;2023-08-21T01:57:09;11.65;;;6.97;;
35990;SDS011;22064;42.672;23.282;2023-08-21T01:59:37;10.70;;;7.40;;
35990;SDS011;22064;42.672;23.282;2023-08-21T02:02:04;10.80;;;6.60;;
35990;SDS011;22064;42.672;23.282;2023-08-21T02:04:31;14.25;;;7.07;;
35990;SDS011;22064;42.672;23.282;2023-08-21T02:06:59;9.43;;;6.75;;
35990;SDS011;22064;42.672;23.282;2023-08-21T02:09:31;13.93;;;6.95;;
35990;SDS011;22064;42.672;23.282;2023-08-21T02:11:58;11.48;;;7.30;;
35990;SDS011;22064;42.672;23.282;2023-08-21T02:14:25;12.02;;;6.85;;
35990;SDS011;22064;42.672;23.282;2023-08-21T02:16:52;11.88;;;7.00;;
35990;SDS011;22064;42.672;23.282;2023-08-21T02:19:19;12.23;;;7.10;;
35990;SDS011;22064;42.672;23.282;2023-08-21T02:21:45;13.55;;;7.53;;
35990;SDS011;22064;42.672;23.282;2023-08-21T02:24:12;11.95;;;7.15;;
35990;SDS011;22064;42.672;23.282;2023-08-21T02:26:39;13.82;;;7.53;;
35990;SDS011;22064;42.672;23.282;2023-08-21T02:29:06;12.60;;;7.25;;
35990;SDS011;22064;42.672;23.282;2023-08-21T02:31:37;13.15;;;7.40;;
35990;SDS011;22064;42.672;23.282;2023-08-21T02:34:04;15.23;;;7.35;;
35990;SDS011;22064;42.672;23.282;2023-08-21T02:36:37;12.60;;;7.70;;
35990;SDS011;22064;42.672;23.282;2023-08-21T02:39:04;13.73;;;6.93;;
35990;SDS011;22064;42.672;23.282;2023-08-21T02:41:32;13.18;;;7.13;;
35990;SDS011;22064;42.672;23.282;2023-08-21T02:44:03;12.38;;;7.20;;
35990;SDS011;22064;42.672;23.282;2023-08-21T02:46:29;14.07;;;7.28;;
35990;SDS011;22064;42.672;23.282;2023-08-21T02:49:03;12.73;;;7.15;;
35990;SDS011;22064;42.672;23.282;2023-08-21T02:51:30;13.32;;;7.60;;
35990;SDS011;22064;42.672;23.282;2023-08-21T02:53:57;15.52;;;7.07;;
35990;SDS011;22064;42.672;23.282;2023-08-21T02:56:24;11.35;;;6.80;;
35990;SDS011;22064;42.672;23.282;2023-08-21T02:58:51;14.13;;;7.88;;
35990;SDS011;22064;42.672;23.282;2023-08-21T03:01:18;13.52;;;7.22;;
35990;SDS011;22064;42.672;23.282;2023-08-21T03:03:46;13.00;;;7.32;;
35990;SDS011;22064;42.672;23.282;2023-08-21T03:06:14;15.10;;;7.40;;
35990;SDS011;22064;42.672;23.282;2023-08-21T03:08:43;16.05;;;7.53;;
35990;SDS011;22064;42.672;23.282;2023-08-21T03:11:10;16.40;;;7.43;;
35990;SDS011;22064;42.672;23.282;2023-08-21T03:13:39;13.33;;;8.07;;
35990;SDS011;22064;42.672;23.282;2023-08-21T03:16:07;23.33;;;10.90;;
35990;SDS011;22064;42.672;23.282;2023-08-21T03:18:41;15.60;;;7.75;;
35990;SDS011;22064;42.672;23.282;2023-08-21T03:21:22;15.48;;;8.25;;
35990;SDS011;22064;42.672;23.282;2023-08-21T03:23:51;16.80;;;7.90;;
35990;SDS011;22064;42.672;23.282;2023-08-21T03:26:22;14.60;;;8.10;;
35990;SDS011;22064;42.672;23.282;2023-08-21T03:28:52;14.98;;;7.43;;
35990;SDS011;22064;42.672;23.282;2023-08-21T03:31:21;17.83;;;8.13;;
35990;SDS011;22064;42.672;23.282;2023-08-21T03:33:50;18.38;;;8.60;;
35990;SDS011;22064;42.672;23.282;2023-08-21T03:36:18;17.02;;;7.80;;
35990;SDS011;22064;42.672;23.282;2023-08-21T03:38:46;15.60;;;7.60;;
35990;SDS011;22064;42.672;23.282;2023-08-21T03:41:14;21.35;;;9.32;;
35990;SDS011;22064;42.672;23.282;2023-08-21T03:43:43;19.65;;;7.85;;
35990;SDS011;22064;42.672;23.282;2023-08-21T03:46:13;20.25;;;9.13;;
35990;SDS011;22064;42.672;23.282;2023-08-21T03:48:40;19.35;;;8.60;;
35990;SDS011;22064;42.672;23.282;2023-08-21T03:51:08;15.82;;;7.97;;
35990;SDS011;22064;42.672;23.282;2023-08-21T03:53:35;18.55;;;8.75;;
35990;SDS011;22064;42.672;23.282;2023-08-21T03:56:02;17.23;;;8.60;;
35990;SDS011;22064;42.672;23.282;2023-08-21T03:58:31;18.77;;;7.95;;
35990;SDS011;22064;42.672;23.282;2023-08-21T04:00:59;15.25;;;8.20;;
35990;SDS011;22064;42.672;23.282;2023-08-21T04:03:32;19.63;;;8.27;;
35990;SDS011;22064;42.672;23.282;2023-08-21T04:06:01;18.17;;;8.70;;
35990;SDS011;22064;42.672;23.282;2023-08-21T04:08:33;17.08;;;9.05;;
35990;SDS011;22064;42.672;23.282;2023-08-21T04:11:01;18.98;;;8.18;;
35990;SDS011;22064;42.672;23.282;2023-08-21T04:13:29;25.83;;;8.75;;
35990;SDS011;22064;42.672;23.282;2023-08-21T04:15:56;23.77;;;8.52;;
35990;SDS011;22064;42.672;23.282;2023-08-21T04:18:29;24.58;;;8.63;;
35990;SDS011;22064;42.672;23.282;2023-08-21T04:20:57;22.67;;;9.10;;
35990;SDS011;22064;42.672;23.282;2023-08-21T04:23:24;20.27;;;7.85;;
35990;SDS011;22064;42.672;23.282;2023-08-21T04:25:51;23.85;;;8.23;;
35990;SDS011;22064;42.672;23.282;2023-08-21T04:28:18;15.88;;;8.52;;
35990;SDS011;22064;42.672;23.282;2023-08-21T04:30:47;18.33;;;8.13;;
35990;SDS011;22064;42.672;23.282;2023-08-21T04:33:14;19.52;;;7.78;;
35990;SDS011;22064;42.672;23.282;2023-08-21T04:35:40;16.02;;;7.78;;
35990;SDS011;22064;42.672;23.282;2023-08-21T04:38:08;15.05;;;8.00;;
35990;SDS011;22064;42.672;23.282;2023-08-21T04:40:36;15.25;;;7.22;;
35990;SDS011;22064;42.672;23.282;2023-08-21T04:43:03;16.50;;;7.68;;
35990;SDS011;22064;42.672;23.282;2023-08-21T04:45:30;14.02;;;6.93;;
35990;SDS011;22064;42.672;23.282;2023-08-21T04:48:03;14.65;;;8.32;;
35990;SDS011;22064;42.672;23.282;2023-08-21T04:50:32;14.15;;;8.18;;
35990;SDS011;22064;42.672;23.282;2023-08-21T04:53:05;19.08;;;7.55;;
35990;SDS011;22064;42.672;23.282;2023-08-21T04:55:33;19.02;;;8.27;;
35990;SDS011;22064;42.672;23.282;2023-08-21T04:58:00;16.58;;;8.13;;
35990;SDS011;22064;42.672;23.282;2023-08-21T05:00:28;16.40;;;8.13;;
35990;SDS011;22064;42.672;23.282;2023-08-21T05:03:00;22.05;;;8.90;;
35990;SDS011;22064;42.672;23.282;2023-08-21T05:05:28;16.13;;;8.73;;
35990;SDS011;22064;42.672;23.282;2023-08-21T05:07:55;18.63;;;8.52;;
35990;SDS011;22064;42.672;23.282;2023-08-21T05:10:23;18.92;;;8.23;;
35990;SDS011;22064;42.672;23.282;2023-08-21T05:12:56;19.38;;;10.02;;
35990;SDS011;22064;42.672;23.282;2023-08-21T05:15:24;20.23;;;9.73;;
35990;SDS011;22064;42.672;23.282;2023-08-21T05:17:51;20.17;;;10.18;;
35990;SDS011;22064;42.672;23.282;2023-08-21T05:20:19;22.33;;;10.52;;
35990;SDS011;22064;42.672;23.282;2023-08-21T05:22:46;24.25;;;10.68;;
35990;SDS011;22064;42.672;23.282;2023-08-21T05:25:13;20.25;;;10.77;;
35990;SDS011;22064;42.672;23.282;2023-08-21T05:27:41;21.65;;;11.38;;
35990;SDS011;22064;42.672;23.282;2023-08-21T05:30:08;19.17;;;10.55;;
35990;SDS011;22064;42.672;23.282;2023-08-21T05:32:36;23.45;;;10.88;;
35990;SDS011;22064;42.672;23.282;2023-08-21T05:35:04;21.38;;;10.60;;
35990;SDS011;22064;42.672;23.282;2023-08-21T05:40:06;24.40;;;10.98;;
35990;SDS011;22064;42.672;23.282;2023-08-21T05:42:35;17.77;;;10.55;;
35990;SDS011;22064;42.672;23.282;2023-08-21T05:45:02;22.17;;;10.73;;
35990;SDS011;22064;42.672;23.282;2023-08-21T05:47:31;19.73;;;11.00;;
35990;SDS011;22064;42.672;23.282;2023-08-21T05:49:59;24.75;;;11.18;;
35990;SDS011;22064;42.672;23.282;2023-08-21T05:52:26;23.05;;;9.85;;
35990;SDS011;22064;42.672;23.282;2023-08-21T05:54:53;22.60;;;10.43;;
35990;SDS011;22064;42.672;23.282;2023-08-21T05:57:21;23.17;;;10.90;;
35990;SDS011;22064;42.672;23.282;2023-08-21T05:59:47;21.10;;;9.73;;
35990;SDS011;22064;42.672;23.282;2023-08-21T06:02:14;20.20;;;9.60;;
35990;SDS011;22064;42.672;23.282;2023-08-21T06:04:45;16.92;;;8.60;;
35990;SDS011;22064;42.672;23.282;2023-08-21T06:07:15;18.67;;;8.90;;
35990;SDS011;22064;42.672;23.282;2023-08-21T06:09:42;18.58;;;8.48;;
35990;SDS011;22064;42.672;23.282;2023-08-21T06:12:10;18.00;;;8.73;;
35990;SDS011;22064;42.672;23.282;2023-08-21T06:14:37;14.60;;;8.32;;
35990;SDS011;22064;42.672;23.282;2023-08-21T06:17:06;20.17;;;8.33;;
35990;SDS011;22064;42.672;23.282;2023-08-21T06:19:33;21.25;;;8.82;;
35990;SDS011;22064;42.672;23.282;2023-08-21T06:22:01;18.58;;;8.18;;
35990;SDS011;22064;42.672;23.282;2023-08-21T06:24:28;16.05;;;7.75;;
35990;SDS011;22064;42.672;23.282;2023-08-21T06:27:00;14.07;;;7.20;;
35990;SDS011;22064;42.672;23.282;2023-08-21T06:29:28;17.00;;;7.70;;
35990;SDS011;22064;42.672;23.282;2023-08-21T06:31:58;18.65;;;7.50;;
35990;SDS011;22064;42.672;23.282;2023-08-21T06:34:27;13.55;;;7.65;;
35990;SDS011;22064;42.672;23.282;2023-08-21T06:36:55;16.02;;;7.15;;
35990;SDS011;22064;42.672;23.282;2023-08-21T06:39:23;14.20;;;7.20;;
35990;SDS011;22064;42.672;23.282;2023-08-21T06:41:51;11.95;;;7.07;;
35990;SDS011;22064;42.672;23.282;2023-08-21T06:44:24;12.25;;;7.13;;
35990;SDS011;22064;42.672;23.282;2023-08-21T06:46:52;13.68;;;7.32;;
35990;SDS011;22064;42.672;23.282;2023-08-21T06:49:20;17.00;;;7.25;;
35990;SDS011;22064;42.672;23.282;2023-08-21T06:51:47;10.63;;;6.30;;
35990;SDS011;22064;42.672;23.282;2023-08-21T06:54:15;15.25;;;7.10;;
35990;SDS011;22064;42.672;23.282;2023-08-21T06:56:48;17.35;;;7.55;;
35990;SDS011;22064;42.672;23.282;2023-08-21T06:59:20;21.17;;;8.05;;
35990;SDS011;22064;42.672;23.282;2023-08-21T07:01:47;17.55;;;7.53;;
35990;SDS011;22064;42.672;23.282;2023-08-21T07:04:14;16.58;;;7.93;;
35990;SDS011;22064;42.672;23.282;2023-08-21T07:06:41;15.32;;;7.38;;
35990;SDS011;22064;42.672;23.282;2023-08-21T07:09:13;15.80;;;6.93;;
35990;SDS011;22064;42.672;23.282;2023-08-21T07:11:46;14.10;;;7.13;;
35990;SDS011;22064;42.672;23.282;2023-08-21T07:14:13;18.20;;;7.47;;
35990;SDS011;22064;42.672;23.282;2023-08-21T07:16:42;13.03;;;6.80;;
35990;SDS011;22064;42.672;23.282;2023-08-21T07:19:15;14.18;;;6.85;;
35990;SDS011;22064;42.672;23.282;2023-08-21T07:21:45;12.73;;;6.47;;
35990;SDS011;22064;42.672;23.282;2023-08-21T07:24:13;13.55;;;6.50;;
35990;SDS011;22064;42.672;23.282;2023-08-21T07:26:39;12.77;;;6.30;;
35990;SDS011;22064;42.672;23.282;2023-08-21T07:29:05;14.45;;;7.55;;
35990;SDS011;22064;42.672;23.282;2023-08-21T07:31:38;12.15;;;6.43;;
35990;SDS011;22064;42.672;23.282;2023-08-21T07:34:10;15.18;;;7.10;;
35990;SDS011;22064;42.672;23.282;2023-08-21T07:36:37;13.02;;;6.13;;
35990;SDS011;22064;42.672;23.282;2023-08-21T07:39:03;11.77;;;7.07;;
35990;SDS011;22064;42.672;23.282;2023-08-21T07:41:30;13.30;;;6.40;;
35990;SDS011;22064;42.672;23.282;2023-08-21T07:44:03;12.10;;;6.40;;
35990;SDS011;22064;42.672;23.282;2023-08-21T07:46:33;12.10;;;6.20;;
35990;SDS011;22064;42.672;23.282;2023-08-21T07:49:00;14.32;;;6.13;;
35990;SDS011;22064;42.672;23.282;2023-08-21T07:51:28;13.77;;;6.30;;
35990;SDS011;22064;42.672;23.282;2023-08-21T07:53:55;16.95;;;6.47;;
35990;SDS011;22064;42.672;23.282;2023-08-21T07:56:22;12.70;;;6.65;;
35990;SDS011;22064;42.672;23.282;2023-08-21T07:58:49;10.70;;;6.43;;
35990;SDS011;22064;42.672;23.282;2023-08-21T08:01:16;12.45;;;6.53;;
35990;SDS011;22064;42.672;23.282;2023-08-21T08:03:42;9.55;;;6.47;;
35990;SDS011;22064;42.672;23.282;2023-08-21T08:06:09;9.75;;;5.90;;
35990;SDS011;22064;42.672;23.282;2023-08-21T08:08:40;15.23;;;6.53;;
35990;SDS011;22064;42.672;23.282;2023-08-21T08:11:07;10.90;;;5.90;;
35990;SDS011;22064;42.672;23.282;2023-08-21T08:13:33;11.73;;;6.00;;
35990;SDS011;22064;42.672;23.282;2023-08-21T08:16:01;10.63;;;5.95;;
35990;SDS011;22064;42.672;23.282;2023-08-21T08:18:27;11.00;;;6.43;;
35990;SDS011;22064;42.672;23.282;2023-08-21T08:20:54;12.50;;;6.43;;
35990;SDS011;22064;42.672;23.282;2023-08-21T08:23:27;14.80;;;6.13;;
35990;SDS011;22064;42.672;23.282;2023-08-21T08:25:54;9.50;;;6.28;;
35990;SDS011;22064;42.672;23.282;2023-08-21T08:28:22;8.00;;;5.75;;
35990;SDS011;22064;42.672;23.282;2023-08-21T08:30:49;12.15;;;6.10;;
35990;SDS011;22064;42.672;23.282;2023-08-21T08:33:20;11.75;;;6.25;;
35990;SDS011;22064;42.672;23.282;2023-08-21T08:35:48;10.02;;;6.10;;
35990;SDS011;22064;42.672;23.282;2023-08-21T08:38:15;12.48;;;6.25;;
35990;SDS011;22064;42.672;23.282;2023-08-21T08:40:44;9.10;;;5.95;;
35990;SDS011;22064;42.672;23.282;2023-08-21T08:43:13;11.93;;;6.53;;
35990;SDS011;22064;42.672;23.282;2023-08-21T08:45:41;11.23;;;5.95;;
35990;SDS011;22064;42.672;23.282;2023-08-21T08:50:36;10.48;;;5.93;;
35990;SDS011;22064;42.672;23.282;2023-08-21T08:53:03;12.20;;;5.85;;
35990;SDS011;22064;42.672;23.282;2023-08-21T08:55:35;11.10;;;6.47;;
35990;SDS011;22064;42.672;23.282;2023-08-21T08:58:01;8.02;;;5.57;;
35990;SDS011;22064;42.672;23.282;2023-08-21T09:00:29;10.73;;;5.50;;
35990;SDS011;22064;42.672;23.282;2023-08-21T09:02:56;10.35;;;5.28;;
35990;SDS011;22064;42.672;23.282;2023-08-21T09:05:27;7.18;;;5.68;;
35990;SDS011;22064;42.672;23.282;2023-08-21T09:08:11;15.10;;;6.18;;
35990;SDS011;22064;42.672;23.282;2023-08-21T09:10:39;9.38;;;6.07;;
35990;SDS011;22064;42.672;23.282;2023-08-21T09:13:10;10.18;;;5.60;;
35990;SDS011;22064;42.672;23.282;2023-08-21T09:15:40;11.65;;;5.68;;
35990;SDS011;22064;42.672;23.282;2023-08-21T09:18:08;11.63;;;5.70;;
35990;SDS011;22064;42.672;23.282;2023-08-21T09:20:37;13.25;;;5.82;;
35990;SDS011;22064;42.672;23.282;2023-08-21T09:23:04;7.93;;;5.85;;
35990;SDS011;22064;42.672;23.282;2023-08-21T09:25:40;10.35;;;5.93;;
35990;SDS011;22064;42.672;23.282;2023-08-21T09:28:11;7.72;;;5.45;;
35990;SDS011;22064;42.672;23.282;2023-08-21T09:30:48;7.57;;;5.55;;
35990;SDS011;22064;42.672;23.282;2023-08-21T09:33:27;9.82;;;5.82;;
35990;SDS011;22064;42.672;23.282;2023-08-21T09:35:56;9.38;;;6.03;;
35990;SDS011;22064;42.672;23.282;2023-08-21T09:38:25;10.43;;;5.60;;
35990;SDS011;22064;42.672;23.282;2023-08-21T09:40:53;14.82;;;5.80;;
35990;SDS011;22064;42.672;23.282;2023-08-21T09:43:24;7.97;;;5.47;;
35990;SDS011;22064;42.672;23.282;2023-08-21T09:45:51;8.77;;;5.22;;
35990;SDS011;22064;42.672;23.282;2023-08-21T09:48:24;6.38;;;5.40;;
35990;SDS011;22064;42.672;23.282;2023-08-21T09:51:03;6.85;;;5.20;;
35990;SDS011;22064;42.672;23.282;2023-08-21T09:53:30;8.32;;;4.93;;
35990;SDS011;22064;42.672;23.282;2023-08-21T09:56:07;11.77;;;5.10;;
35990;SDS011;22064;42.672;23.282;2023-08-21T09:58:35;9.20;;;5.35;;
35990;SDS011;22064;42.672;23.282;2023-08-21T10:01:05;8.10;;;5.05;;
35990;SDS011;22064;42.672;23.282;2023-08-21T10:03:41;10.43;;;5.20;;
35990;SDS011;22064;42.672;23.282;2023-08-21T10:06:09;10.52;;;5.07;;
35990;SDS011;22064;42.672;23.282;2023-08-21T10:08:38;7.57;;;5.60;;
35990;SDS011;22064;42.672;23.282;2023-08-21T10:11:09;11.20;;;5.22;;
35990;SDS011;22064;42.672;23.282;2023-08-21T10:13:37;7.65;;;5.20;;
35990;SDS011;22064;42.672;23.282;2023-08-21T10:16:06;7.38;;;5.13;;
35990;SDS011;22064;42.672;23.282;2023-08-21T10:18:34;11.65;;;5.43;;
35990;SDS011;22064;42.672;23.282;2023-08-21T10:23:41;11.52;;;5.03;;
35990;SDS011;22064;42.672;23.282;2023-08-21T10:26:09;8.00;;;4.90;;
35990;SDS011;22064;42.672;23.282;2023-08-21T10:34:06;12.40;;;5.40;;
35990;SDS011;22064;42.672;23.282;2023-08-21T10:39:22;12.32;;;5.88;;
35990;SDS011;22064;42.672;23.282;2023-08-21T10:47:23;8.00;;;5.47;;
35990;SDS011;22064;42.672;23.282;2023-08-21T10:50:03;10.00;;;5.15;;
35990;SDS011;22064;42.672;23.282;2023-08-21T10:52:38;9.40;;;5.50;;
35990;SDS011;22064;42.672;23.282;2023-08-21T10:55:12;9.95;;;5.03;;
35990;SDS011;22064;42.672;23.282;2023-08-21T10:57:48;13.57;;;5.93;;
35990;SDS011;22064;42.672;23.282;2023-08-21T11:00:19;6.97;;;4.57;;
35990;SDS011;22064;42.672;23.282;2023-08-21T11:02:50;8.57;;;4.82;;
35990;SDS011;22064;42.672;23.282;2023-08-21T11:05:23;9.70;;;4.82;;
35990;SDS011;22064;42.672;23.282;2023-08-21T11:07:49;8.85;;;5.43;;
35990;SDS011;22064;42.672;23.282;2023-08-21T11:10:19;7.67;;;5.17;;
35990;SDS011;22064;42.672;23.282;2023-08-21T11:12:54;10.88;;;5.57;;
35990;SDS011;22064;42.672;23.282;2023-08-21T11:15:28;11.93;;;5.23;;
35990;SDS011;22064;42.672;23.282;2023-08-21T11:17:57;6.22;;;4.50;;
35990;SDS011;22064;42.672;23.282;2023-08-21T11:20:28;8.02;;;5.35;;
35990;SDS011;22064;42.672;23.282;2023-08-21T11:23:03;8.52;;;4.68;;
35990;SDS011;22064;42.672;23.282;2023-08-21T11:25:40;9.23;;;4.97;;
35990;SDS011;22064;42.672;23.282;2023-08-21T11:28:08;8.70;;;4.70;;
35990;SDS011;22064;42.672;23.282;2023-08-21T11:30:33;6.97;;;4.85;;
35990;SDS011;22064;42.672;23.282;2023-08-21T11:33:08;6.05;;;4.63;;
35990;SDS011;22064;42.672;23.282;2023-08-21T11:38:17;7.35;;;4.50;;
35990;SDS011;22064;42.672;23.282;2023-08-21T11:43:37;12.90;;;4.77;;
35990;SDS011;22064;42.672;23.282;2023-08-21T11:46:07;10.45;;;5.07;;
35990;SDS011;22064;42.672;23.282;2023-08-21T11:48:41;9.30;;;5.30;;
35990;SDS011;22064;42.672;23.282;2023-08-21T11:51:09;7.00;;;4.90;;
35990;SDS011;22064;42.672;23.282;2023-08-21T11:53:35;10.13;;;4.85;;
35990;SDS011;22064;42.672;23.282;2023-08-21T11:56:18;7.72;;;4.78;;
35990;SDS011;22064;42.672;23.282;2023-08-21T11:58:46;7.75;;;5.10;;
35990;SDS011;22064;42.672;23.282;2023-08-21T12:01:16;6.72;;;4.80;;
35990;SDS011;22064;42.672;23.282;2023-08-21T12:03:47;10.05;;;5.30;;
35990;SDS011;22064;42.672;23.282;2023-08-21T12:06:22;6.72;;;4.60;;
35990;SDS011;22064;42.672;23.282;2023-08-21T12:08:51;6.18;;;4.57;;
35990;SDS011;22064;42.672;23.282;2023-08-21T12:11:19;11.32;;;5.15;;
35990;SDS011;22064;42.672;23.282;2023-08-21T12:13:53;9.35;;;5.30;;
35990;SDS011;22064;42.672;23.282;2023-08-21T12:16:21;6.80;;;4.70;;
35990;SDS011;22064;42.672;23.282;2023-08-21T12:18:53;9.05;;;4.75;;
35990;SDS011;22064;42.672;23.282;2023-08-21T12:21:27;7.57;;;4.65;;
35990;SDS011;22064;42.672;23.282;2023-08-21T12:24:00;10.13;;;4.75;;
35990;SDS011;22064;42.672;23.282;2023-08-21T12:26:32;9.90;;;4.82;;
35990;SDS011;22064;42.672;23.282;2023-08-21T12:29:03;8.70;;;4.82;;
35990;SDS011;22064;42.672;23.282;2023-08-21T12:31:29;10.35;;;5.00;;
35990;SDS011;22064;42.672;23.282;2023-08-21T12:33:56;8.55;;;5.57;;
35990;SDS011;22064;42.672;23.282;2023-08-21T12:36:23;8.10;;;4.95;;
35990;SDS011;22064;42.672;23.282;2023-08-21T12:38:54;8.45;;;5.18;;
35990;SDS011;22064;42.672;23.282;2023-08-21T12:41:21;9.25;;;5.20;;
35990;SDS011;22064;42.672;23.282;2023-08-21T12:43:47;8.18;;;4.75;;
35990;SDS011;22064;42.672;23.282;2023-08-21T12:46:14;5.25;;;4.60;;
35990;SDS011;22064;42.672;23.282;2023-08-21T12:48:41;7.55;;;4.85;;
35990;SDS011;22064;42.672;23.282;2023-08-21T12:51:08;8.20;;;4.90;;
35990;SDS011;22064;42.672;23.282;2023-08-21T12:53:37;7.95;;;4.93;;
35990;SDS011;22064;42.672;23.282;2023-08-21T12:56:03;9.05;;;5.00;;
35990;SDS011;22064;42.672;23.282;2023-08-21T12:58:31;14.63;;;5.00;;
35990;SDS011;22064;42.672;23.282;2023-08-21T13:01:00;10.43;;;5.10;;
35990;SDS011;22064;42.672;23.282;2023-08-21T13:03:26;8.13;;;4.50;;
35990;SDS011;22064;42.672;23.282;2023-08-21T13:05:52;13.30;;;6.15;;
35990;SDS011;22064;42.672;23.282;2023-08-21T13:08:21;8.00;;;5.05;;
35990;SDS011;22064;42.672;23.282;2023-08-21T13:10:48;8.15;;;4.72;;
35990;SDS011;22064;42.672;23.282;2023-08-21T13:13:14;7.00;;;4.70;;
35990;SDS011;22064;42.672;23.282;2023-08-21T13:15:41;6.45;;;4.70;;
35990;SDS011;22064;42.672;23.282;2023-08-21T13:18:11;7.15;;;4.70;;
35990;SDS011;22064;42.672;23.282;2023-08-21T13:20:41;6.68;;;4.88;;
35990;SDS011;22064;42.672;23.282;2023-08-21T13:23:08;9.75;;;4.97;;
35990;SDS011;22064;42.672;23.282;2023-08-21T13:25:36;8.30;;;5.00;;
35990;SDS011;22064;42.672;23.282;2023-08-21T13:28:03;8.40;;;5.20;;
35990;SDS011;22064;42.672;23.282;2023-08-21T13:30:30;10.88;;;5.05;;
35990;SDS011;22064;42.672;23.282;2023-08-21T13:32:57;8.25;;;5.28;;
35990;SDS011;22064;42.672;23.282;2023-08-21T13:35:24;6.55;;;4.78;;
35990;SDS011;22064;42.672;23.282;2023-08-21T13:37:51;9.55;;;5.43;;
35990;SDS011;22064;42.672;23.282;2023-08-21T13:40:18;9.40;;;5.47;;
35990;SDS011;22064;42.672;23.282;2023-08-21T13:42:46;7.28;;;4.82;;
35990;SDS011;22064;42.672;23.282;2023-08-21T13:45:15;9.15;;;5.10;;
35990;SDS011;22064;42.672;23.282;2023-08-21T13:47:44;12.50;;;4.85;;
35990;SDS011;22064;42.672;23.282;2023-08-21T13:50:15;5.35;;;4.75;;
35990;SDS011;22064;42.672;23.282;2023-08-21T13:52:47;8.40;;;4.90;;
35990;SDS011;22064;42.672;23.282;2023-08-21T13:57:48;6.82;;;4.80;;
35990;SDS011;22064;42.672;23.282;2023-08-21T14:00:14;5.78;;;4.53;;
35990;SDS011;22064;42.672;23.282;2023-08-21T14:02:43;6.95;;;4.50;;
35990;SDS011;22064;42.672;23.282;2023-08-21T14:05:11;11.25;;;5.18;;
35990;SDS011;22064;42.672;23.282;2023-08-21T14:07:38;9.27;;;5.05;;
35990;SDS011;22064;42.672;23.282;2023-08-21T14:10:05;9.35;;;4.85;;
35990;SDS011;22064;42.672;23.282;2023-08-21T14:12:32;8.45;;;4.70;;
35990;SDS011;22064;42.672;23.282;2023-08-21T14:14:59;7.68;;;4.65;;
35990;SDS011;22064;42.672;23.282;2023-08-21T14:17:27;6.90;;;4.68;;
35990;SDS011;22064;42.672;23.282;2023-08-21T14:19:54;18.60;;;15.70;;
35990;SDS011;22064;42.672;23.282;2023-08-21T14:22:21;9.75;;;5.10;;
35990;SDS011;22064;42.672;23.282;2023-08-21T14:24:49;9.30;;;5.18;;
35990;SDS011;22064;42.672;23.282;2023-08-21T14:27:19;11.25;;;5.75;;
35990;SDS011;22064;42.672;23.282;2023-08-21T14:29:46;7.00;;;4.72;;
35990;SDS011;22064;42.672;23.282;2023-08-21T14:32:12;7.18;;;5.13;;
35990;SDS011;22064;42.672;23.282;2023-08-21T14:34:39;10.98;;;5.03;;
35990;SDS011;22064;42.672;23.282;2023-08-21T14:37:06;7.68;;;5.13;;
35990;SDS011;22064;42.672;23.282;2023-08-21T14:39:33;8.23;;;5.40;;
35990;SDS011;22064;42.672;23.282;2023-08-21T14:42:02;6.97;;;4.70;;
35990;SDS011;22064;42.672;23.282;2023-08-21T14:44:31;7.35;;;4.70;;
35990;SDS011;22064;42.672;23.282;2023-08-21T14:46:59;8.65;;;4.78;;
35990;SDS011;22064;42.672;23.282;2023-08-21T14:49:26;9.15;;;5.03;;
35990;SDS011;22064;42.672;23.282;2023-08-21T14:51:53;7.35;;;4.60;;
35990;SDS011;22064;42.672;23.282;2023-08-21T14:54:20;10.60;;;4.87;;
35990;SDS011;22064;42.672;23.282;2023-08-21T14:56:47;10.02;;;5.00;;
35990;SDS011;22064;42.672;23.282;2023-08-21T14:59:14;7.68;;;4.88;;
35990;SDS011;22064;42.672;23.282;2023-08-21T15:13:11;8.50;;;5.50;;
35990;SDS011;22064;42.672;23.282;2023-08-21T15:15:40;12.25;;;4.75;;
35990;SDS011;22064;42.672;23.282;2023-08-21T15:18:07;6.88;;;4.95;;
35990;SDS011;22064;42.672;23.282;2023-08-21T15:20:33;8.40;;;5.47;;